map of ETR home
ETR - Airport
Location
City:  Santa Rosa, El Oro, Ecuador
Name:Coronel Artilleria Victor Larrea Airport
Old (Alt.):Santa Rosa International Airport
ICAO:SERO
IATA:ETR

Details
Type:Airport (Aerodrome, Airfield)
Use:International (customs port of entry)
Latitude:326'07"S (-3.435160)
Longitude:7958'40"W (-79.977816)
Datum:WGS 1984
Elevation:170 ft (52 m)
Variation:1.95W (WMM2015 magnetic declination)
-0.16 annual change
Runways:1
Longest:3255 × 59 ft (992 × 18 m), paved

Time
Time Zone:UTC-5
Local Time:

Weather
METAR:SERO 201500Z 35002KT 9999 FEW013 BKN020 25/20 Q1013

Related Locations
Nearby:
Farthest:WMAJ: 12372 mi / 19912 km
Jenderata (Jendarata), 08, MY

Find:

   beyond  
but within

Other Information
Maps:
NOTAMs:
Links:
Sources:

  
  • flag of Ecuador
  • flag of El Oro
  

Sectional Chart

Flight Planning
at skyvector.com

Satellite Image

Google Maps Satellite view

 

Copyright © 2004-2018 Karl L. Swartz. All rights reserved.
The Great Circle Mapper name and logo are trademarks of the Great Circle Mapper.
All other trademarks mentioned herein belong to their respective owners.
Please see credits for attibutions and further copyright information.

  Follow gcmap on Facebook Follow gcmap on Twitter Follow gcmap on Google+ GCmap on LinkedIn

hCard Microformat

Geo Microformat